Time,TemperatureF,DewpointF,PressureIn,WindDirection,WindDirectionDegrees,WindSpeedMPH,WindSpeedGustMPH,Humidity,HourlyPrecipIn,Conditions,Clouds,dailyrainin,SoftwareType,DateUTC
2015-03-01 00:05:00,20.8,15.9,29.35,East,88,6.3,7.8,81,0.00,,,-99.99,HOBO +U30 +Weather +,2015-03-01 05:05:00,
2015-03-01 00:06:00,21.2,15.9,29.35,ENE,65,5.1,8.5,79,0.00,,,-99.99,HOBO +U30 +Weather +,2015-03-01 05:06:00,
2015-03-01 00:15:00,20.4,16.6,29.34,ESE,104,7.4,9.6,85,0.00,,,-99.99,HOBO +U30 +Weather +,2015-03-01 05:15:00,
2015-03-01 00:16:00,20.5,16.2,29.35,East,98,5.6,9.6,83,0.00,,,-99.99,HOBO +U30 +Weather +,2015-03-01 05:16:00,
2015-03-01 00:25:00,20.3,17.0,29.34,ESE,117,6.7,10.1,87,0.00,,,-99.99,HOBO +U30 +Weather +,2015-03-01 05:25:00,
2015-03-01 00:26:00,20.3,16.8,29.34,ESE,110,6.3,8.5,86,0.00,,,-99.99,HOBO +U30 +Weather +,2015-03-01 05:26:00,
2015-03-01 00:35:00,20.3,17.4,29.33,SE,125,6.7,10.1,88,0.00,,,-99.99,HOBO +U30 +Weather +,2015-03-01 05:35:00,
2015-03-01 00:36:00,20.2,17.2,29.34,ESE,118,6.7,9.6,87,0.00,,,-99.99,HOBO +U30 +Weather +,2015-03-01 05:36:00,
2015-03-01 00:45:00,20.3,17.6,29.32,ESE,119,7.8,10.1,89,0.00,,,-99.99,HOBO +U30 +Weather +,2015-03-01 05:45:00,
2015-03-01 00:46:00,20.2,17.5,29.33,ESE,121,6.7,10.1,89,0.00,,,-99.99,HOBO +U30 +Weather +,2015-03-01 05:46:00,
2015-03-01 00:55:00,20.3,17.8,29.32,ESE,115,7.8,11.9,89,0.00,,,-99.99,HOBO +U30 +Weather +,2015-03-01 05:55:00,
2015-03-01 00:56:00,20.3,17.7,29.32,ESE,119,7.8,10.7,89,0.00,,,-99.99,HOBO +U30 +Weather +,2015-03-01 05:56:00,
2015-03-01 01:05:00,20.4,18.1,29.31,ESE,114,7.4,8.9,90,0.00,,,-99.99,HOBO +U30 +Weather +,2015-03-01 06:05:00,
2015-03-01 01:06:00,20.4,18.0,29.31,ESE,118,6.7,10.1,90,0.00,,,-99.99,HOBO +U30 +Weather +,2015-03-01 06:06:00,
2015-03-01 01:15:00,20.5,18.2,29.31,ESE,117,8.5,12.3,90,0.00,,,-99.99,HOBO +U30 +Weather +,2015-03-01 06:15:00,
2015-03-01 01:16:00,20.5,18.2,29.31,ESE,115,8.5,11.9,90,0.00,,,-99.99,HOBO +U30 +Weather +,2015-03-01 06:16:00,
2015-03-01 01:25:00,20.7,18.5,29.30,ESE,114,7.8,10.7,91,0.00,,,-99.99,HOBO +U30 +Weather +,2015-03-01 06:25:00,
2015-03-01 01:26:00,20.7,18.5,29.30,ESE,119,8.9,12.3,91,0.00,,,-99.99,HOBO +U30 +Weather +,2015-03-01 06:26:00,
2015-03-01 01:35:00,20.9,18.8,29.30,ESE,118,6.7,10.1,91,0.00,,,-99.99,HOBO +U30 +Weather +,2015-03-01 06:35:00,
2015-03-01 01:36:00,20.8,18.6,29.30,ESE,115,7.4,10.1,91,0.00,,,-99.99,HOBO +U30 +Weather +,2015-03-01 06:36:00,
2015-03-01 01:45:00,21.2,19.2,29.30,SE,135,6.7,8.5,91,0.00,,,-99.99,HOBO +U30 +Weather +,2015-03-01 06:45:00,
2015-03-01 01:46:00,21.1,19.0,29.30,ESE,121,6.7,8.9,91,0.00,,,-99.99,HOBO +U30 +Weather +,2015-03-01 06:46:00,
2015-03-01 01:55:00,21.4,19.5,29.30,SE,143,8.5,10.7,92,0.00,,,-99.99,HOBO +U30 +Weather +,2015-03-01 06:55:00,
2015-03-01 01:56:00,21.4,19.4,29.30,SE,142,7.8,10.7,91,0.00,,,-99.99,HOBO +U30 +Weather +,2015-03-01 06:56:00,
2015-03-01 02:05:00,21.6,19.7,29.29,SSE,150,8.5,10.7,92,0.00,,,-99.99,HOBO +U30 +Weather +,2015-03-01 07:05:00,
2015-03-01 02:06:00,21.6,19.7,29.30,SE,146,8.5,10.7,92,0.00,,,-99.99,HOBO +U30 +Weather +,2015-03-01 07:06:00,
2015-03-01 02:15:00,21.9,20.1,29.29,SSE,153,8.5,10.7,92,0.00,,,-99.99,HOBO +U30 +Weather +,2015-03-01 07:15:00,
2015-03-01 02:16:00,21.8,19.9,29.29,SSE,152,8.5,10.7,92,0.00,,,-99.99,HOBO +U30 +Weather +,2015-03-01 07:16:00,
2015-03-01 02:25:00,22.1,20.4,29.29,SSE,154,8.5,11.2,92,0.00,,,-99.99,HOBO +U30 +Weather +,2015-03-01 07:25:00,
2015-03-01 02:26:00,22.0,20.2,29.29,SSE,154,8.9,12.3,92,0.00,,,-99.99,HOBO +U30 +Weather +,2015-03-01 07:26:00,
2015-03-01 02:35:00,22.4,20.6,29.28,SSE,147,8.9,12.3,93,0.00,,,-99.99,HOBO +U30 +Weather +,2015-03-01 07:35:00,
2015-03-01 02:36:00,22.2,20.4,29.28,SSE,150,8.9,10.7,92,0.00,,,-99.99,HOBO +U30 +Weather +,2015-03-01 07:36:00,
2015-03-01 02:45:00,22.6,20.9,29.27,SSE,147,10.1,12.3,93,0.00,,,-99.99,HOBO +U30 +Weather +,2015-03-01 07:45:00,
2015-03-01 02:46:00,22.5,20.8,29.28,SSE,150,10.1,13.0,93,0.00,,,-99.99,HOBO +U30 +Weather +,2015-03-01 07:46:00,
2015-03-01 02:55:00,23.2,21.5,29.26,SSE,147,8.5,11.9,93,0.00,,,-99.99,HOBO +U30 +Weather +,2015-03-01 07:55:00,
2015-03-01 02:56:00,22.9,21.2,29.27,SE,146,9.6,12.3,93,0.00,,,-99.99,HOBO +U30 +Weather +,2015-03-01 07:56:00,
2015-03-01 03:05:00,23.8,22.3,29.26,SE,145,8.5,11.2,93,0.00,,,-99.99,HOBO +U30 +Weather +,2015-03-01 08:05:00,
2015-03-01 03:06:00,23.5,21.9,29.26,SSE,149,7.8,10.7,93,0.00,,,-99.99,HOBO +U30 +Weather +,2015-03-01 08:06:00,
2015-03-01 03:15:00,24.3,22.8,29.25,SSE,149,6.7,8.9,94,0.00,,,-99.99,HOBO +U30 +Weather +,2015-03-01 08:15:00,
2015-03-01 03:16:00,24.4,22.9,29.25,SE,143,6.3,8.5,94,0.00,,,-99.99,HOBO +U30 +Weather +,2015-03-01 08:16:00,
2015-03-01 03:25:00,24.7,23.3,29.25,SSE,149,5.6,7.8,94,0.00,,,-99.99,HOBO +U30 +Weather +,2015-03-01 08:25:00,
2015-03-01 03:26:00,24.4,23.0,29.25,SSE,149,5.6,7.8,94,0.00,,,-99.99,HOBO +U30 +Weather +,2015-03-01 08:26:00,
2015-03-01 03:35:00,24.7,23.3,29.24,SSE,153,6.7,9.6,94,0.00,,,-99.99,HOBO +U30 +Weather +,2015-03-01 08:35:00,
2015-03-01 03:36:00,24.9,23.5,29.24,SSE,154,5.6,7.8,94,0.00,,,-99.99,HOBO +U30 +Weather +,2015-03-01 08:36:00,
2015-03-01 03:45:00,24.9,23.6,29.24,SSE,150,7.4,10.7,94,0.00,,,-99.99,HOBO +U30 +Weather +,2015-03-01 08:45:00,
2015-03-01 03:46:00,24.8,23.4,29.24,SSE,153,7.4,8.9,94,0.00,,,-99.99,HOBO +U30 +Weather +,2015-03-01 08:46:00,
2015-03-01 03:55:00,25.4,24.1,29.24,SSE,150,6.3,7.8,94,0.00,,,-99.99,HOBO +U30 +Weather +,2015-03-01 08:55:00,
2015-03-01 03:56:00,25.1,23.8,29.24,SE,146,6.3,7.8,94,0.00,,,-99.99,HOBO +U30 +Weather +,2015-03-01 08:56:00,
2015-03-01 04:05:00,25.5,24.3,29.24,SSE,160,6.7,8.9,95,0.00,,,-99.99,HOBO +U30 +Weather +,2015-03-01 09:05:00,
2015-03-01 04:06:00,25.5,24.2,29.24,SSE,159,6.7,8.9,94,0.00,,,-99.99,HOBO +U30 +Weather +,2015-03-01 09:06:00,
2015-03-01 04:15:00,26.0,24.7,29.24,SSE,168,7.8,10.1,95,0.00,,,-99.99,HOBO +U30 +Weather +,2015-03-01 09:15:00,
2015-03-01 04:16:00,25.7,24.5,29.24,SSE,164,7.4,8.9,95,0.00,,,-99.99,HOBO +U30 +Weather +,2015-03-01 09:16:00,
2015-03-01 04:25:00,25.7,24.5,29.24,South,171,7.8,10.1,95,0.00,,,-99.99,HOBO +U30 +Weather +,2015-03-01 09:25:00,
2015-03-01 04:26:00,25.7,24.5,29.24,South,173,8.5,11.2,95,0.00,,,-99.99,HOBO +U30 +Weather +,2015-03-01 09:26:00,
2015-03-01 04:35:00,25.8,24.7,29.24,SSE,168,6.3,8.9,95,0.00,,,-99.99,HOBO +U30 +Weather +,2015-03-01 09:35:00,
2015-03-01 04:36:00,25.7,24.5,29.25,South,173,7.4,10.1,95,0.00,,,-99.99,HOBO +U30 +Weather +,2015-03-01 09:36:00,
2015-03-01 04:45:00,26.3,25.1,29.24,SSE,167,5.1,6.7,95,0.00,,,-99.99,HOBO +U30 +Weather +,2015-03-01 09:45:00,
2015-03-01 04:46:00,26.1,24.9,29.24,South,171,6.3,7.8,95,0.00,,,-99.99,HOBO +U30 +Weather +,2015-03-01 09:46:00,
2015-03-01 04:55:00,26.2,25.0,29.25,South,170,5.6,6.7,95,0.00,,,-99.99,HOBO +U30 +Weather +,2015-03-01 09:55:00,
2015-03-01 04:56:00,26.2,25.0,29.24,SSE,167,5.6,7.8,95,0.00,,,-99.99,HOBO +U30 +Weather +,2015-03-01 09:56:00,
2015-03-01 05:05:00,26.0,24.8,29.25,South,173,6.7,9.6,95,0.00,,,-99.99,HOBO +U30 +Weather +,2015-03-01 10:05:00,
2015-03-01 05:06:00,26.2,25.0,29.25,South,170,5.6,7.8,95,0.00,,,-99.99,HOBO +U30 +Weather +,2015-03-01 10:06:00,
2015-03-01 05:15:00,25.8,24.7,29.25,South,177,6.7,8.9,95,0.00,,,-99.99,HOBO +U30 +Weather +,2015-03-01 10:15:00,
2015-03-01 05:16:00,25.8,24.7,29.25,South,177,7.4,10.1,95,0.00,,,-99.99,HOBO +U30 +Weather +,2015-03-01 10:16:00,
2015-03-01 05:25:00,25.8,24.7,29.25,South,175,7.8,9.6,95,0.00,,,-99.99,HOBO +U30 +Weather +,2015-03-01 10:25:00,
2015-03-01 05:26:00,26.0,24.9,29.25,South,178,6.7,10.1,95,0.00,,,-99.99,HOBO +U30 +Weather +,2015-03-01 10:26:00,
2015-03-01 05:35:00,25.9,24.8,29.25,South,181,7.4,9.6,95,0.00,,,-99.99,HOBO +U30 +Weather +,2015-03-01 10:35:00,
2015-03-01 05:36:00,25.9,24.8,29.25,South,181,7.8,9.6,95,0.00,,,-99.99,HOBO +U30 +Weather +,2015-03-01 10:36:00,
2015-03-01 05:45:00,25.8,24.7,29.25,South,178,8.9,11.2,95,0.00,,,-99.99,HOBO +U30 +Weather +,2015-03-01 10:45:00,
2015-03-01 05:46:00,25.9,24.8,29.25,South,178,8.5,11.2,95,0.00,,,-99.99,HOBO +U30 +Weather +,2015-03-01 10:46:00,
2015-03-01 05:55:00,26.0,24.9,29.25,South,177,8.5,10.7,95,0.00,,,-99.99,HOBO +U30 +Weather +,2015-03-01 10:55:00,
2015-03-01 05:56:00,25.8,24.7,29.25,South,178,7.8,10.1,95,0.00,,,-99.99,HOBO +U30 +Weather +,2015-03-01 10:56:00,
2015-03-01 06:05:00,26.4,25.3,29.25,South,174,8.5,11.2,95,0.00,,,-99.99,HOBO +U30 +Weather +,2015-03-01 11:05:00,
2015-03-01 06:06:00,26.1,25.0,29.25,South,177,7.8,10.1,95,0.00,,,-99.99,HOBO +U30 +Weather +,2015-03-01 11:06:00,
2015-03-01 06:15:00,26.5,25.5,29.25,South,171,8.9,11.2,95,0.00,,,-99.99,HOBO +U30 +Weather +,2015-03-01 11:15:00,
2015-03-01 06:16:00,26.5,25.4,29.25,South,173,8.5,11.2,95,0.00,,,-99.99,HOBO +U30 +Weather +,2015-03-01 11:16:00,
2015-03-01 06:25:00,26.7,25.7,29.25,South,173,8.5,11.9,95,0.00,,,-99.99,HOBO +U30 +Weather +,2015-03-01 11:25:00,
2015-03-01 06:26:00,26.8,25.7,29.25,South,174,8.5,11.9,95,0.00,,,-99.99,HOBO +U30 +Weather +,2015-03-01 11:26:00,
2015-03-01 06:35:00,26.8,25.7,29.25,South,171,8.5,11.2,95,0.00,,,-99.99,HOBO +U30 +Weather +,2015-03-01 11:35:00,
2015-03-01 06:36:00,26.8,25.7,29.24,SSE,168,9.6,11.9,95,0.00,,,-99.99,HOBO +U30 +Weather +,2015-03-01 11:36:00,
2015-03-01 06:45:00,27.0,25.9,29.24,SSE,164,8.9,13.4,95,0.00,,,-99.99,HOBO +U30 +Weather +,2015-03-01 11:45:00,
2015-03-01 06:46:00,26.7,25.6,29.24,South,170,8.5,10.7,95,0.00,,,-99.99,HOBO +U30 +Weather +,2015-03-01 11:46:00,
2015-03-01 06:55:00,27.0,25.9,29.24,SSE,163,8.9,11.9,95,0.00,,,-99.99,HOBO +U30 +Weather +,2015-03-01 11:55:00,
2015-03-01 06:56:00,27.0,25.9,29.24,SSE,164,9.6,14.1,95,0.00,,,-99.99,HOBO +U30 +Weather +,2015-03-01 11:56:00,
2015-03-01 07:05:00,27.0,25.8,29.23,SSE,168,9.6,13.0,95,0.00,,,-99.99,HOBO +U30 +Weather +,2015-03-01 12:05:00,
2015-03-01 07:06:00,27.1,25.9,29.23,SSE,166,9.6,13.0,95,0.00,,,-99.99,HOBO +U30 +Weather +,2015-03-01 12:06:00,
2015-03-01 07:15:00,26.9,25.5,29.23,SSE,167,8.5,11.2,94,0.00,,,-99.99,HOBO +U30 +Weather +,2015-03-01 12:15:00,
2015-03-01 07:16:00,27.0,25.6,29.23,SSE,168,9.6,13.4,94,0.00,,,-99.99,HOBO +U30 +Weather +,2015-03-01 12:16:00,
2015-03-01 07:25:00,27.0,25.5,29.23,SSE,166,6.3,8.5,94,0.00,,,-99.99,HOBO +U30 +Weather +,2015-03-01 12:25:00,
2015-03-01 07:26:00,26.9,25.5,29.23,SSE,167,7.8,10.1,94,0.00,,,-99.99,HOBO +U30 +Weather +,2015-03-01 12:26:00,
2015-03-01 07:35:00,27.1,25.4,29.23,SSE,166,6.3,8.5,93,0.00,,,-99.99,HOBO +U30 +Weather +,2015-03-01 12:35:00,
2015-03-01 07:36:00,27.0,25.5,29.23,SSE,167,5.6,8.5,93,0.00,,,-99.99,HOBO +U30 +Weather +,2015-03-01 12:36:00,
2015-03-01 07:45:00,27.1,25.2,29.23,SSE,167,6.7,8.9,92,0.00,,,-99.99,HOBO +U30 +Weather +,2015-03-01 12:45:00,
2015-03-01 07:46:00,27.1,25.3,29.23,SSE,164,6.3,10.1,92,0.00,,,-99.99,HOBO +U30 +Weather +,2015-03-01 12:46:00,
2015-03-01 07:55:00,27.1,25.2,29.23,SSE,164,6.3,8.5,92,0.00,,,-99.99,HOBO +U30 +Weather +,2015-03-01 12:55:00,
2015-03-01 07:56:00,27.0,25.1,29.23,SSE,167,6.7,8.9,92,0.00,,,-99.99,HOBO +U30 +Weather +,2015-03-01 12:56:00,
2015-03-01 08:05:00,27.1,25.1,29.23,SSE,163,7.8,10.1,91,0.00,,,-99.99,HOBO +U30 +Weather +,2015-03-01 13:05:00,
2015-03-01 08:06:00,27.2,25.2,29.23,SSE,163,6.7,8.9,92,0.00,,,-99.99,HOBO +U30 +Weather +,2015-03-01 13:06:00,
2015-03-01 08:15:00,27.0,25.0,29.23,SSE,166,6.7,8.9,91,0.00,,,-99.99,HOBO +U30 +Weather +,2015-03-01 13:15:00,
2015-03-01 08:16:00,27.1,25.0,29.23,SSE,163,7.4,9.6,91,0.00,,,-99.99,HOBO +U30 +Weather +,2015-03-01 13:16:00,
2015-03-01 08:25:00,26.9,24.9,29.23,SSE,166,7.4,9.6,92,0.00,,,-99.99,HOBO +U30 +Weather +,2015-03-01 13:25:00,
2015-03-01 08:26:00,26.9,24.9,29.23,SSE,167,7.8,9.6,92,0.00,,,-99.99,HOBO +U30 +Weather +,2015-03-01 13:26:00,
2015-03-01 08:35:00,27.0,25.1,29.23,SSE,164,7.8,11.2,92,0.00,,,-99.99,HOBO +U30 +Weather +,2015-03-01 13:35:00,
2015-03-01 08:36:00,27.0,25.0,29.23,SSE,167,7.4,11.2,92,0.00,,,-99.99,HOBO +U30 +Weather +,2015-03-01 13:36:00,
2015-03-01 08:45:00,26.9,25.1,29.23,SSE,163,7.8,10.1,92,0.00,,,-99.99,HOBO +U30 +Weather +,2015-03-01 13:45:00,
2015-03-01 08:46:00,27.0,25.0,29.23,SSE,163,8.5,11.2,92,0.00,,,-99.99,HOBO +U30 +Weather +,2015-03-01 13:46:00,
2015-03-01 08:55:00,26.9,25.1,29.23,SSE,159,7.4,10.1,93,0.00,,,-99.99,HOBO +U30 +Weather +,2015-03-01 13:55:00,
2015-03-01 08:56:00,26.9,25.1,29.23,SSE,163,7.8,11.2,92,0.00,,,-99.99,HOBO +U30 +Weather +,2015-03-01 13:56:00,
2015-03-01 09:05:00,26.9,25.2,29.23,SSE,157,6.3,8.5,93,0.00,,,-99.99,HOBO +U30 +Weather +,2015-03-01 14:05:00,
2015-03-01 09:15:00,27.0,25.4,29.23,SSE,154,5.1,7.4,94,0.00,,,-99.99,HOBO +U30 +Weather +,2015-03-01 14:15:00,
2015-03-01 09:25:00,27.3,25.9,29.23,SSE,154,4.0,5.6,94,0.00,,,-99.99,HOBO +U30 +Weather +,2015-03-01 14:25:00,
2015-03-01 09:26:00,27.1,25.6,29.23,SSE,154,4.5,6.7,94,0.00,,,-99.99,HOBO +U30 +Weather +,2015-03-01 14:26:00,
2015-03-01 09:35:00,27.4,26.0,29.22,SSE,153,4.0,6.7,94,0.00,,,-99.99,HOBO +U30 +Weather +,2015-03-01 14:35:00,
2015-03-01 09:45:00,27.4,26.1,29.22,SSE,150,5.1,6.7,94,0.00,,,-99.99,HOBO +U30 +Weather +,2015-03-01 14:45:00,
2015-03-01 09:55:00,27.5,26.3,29.22,SSE,156,5.6,7.8,95,0.00,,,-99.99,HOBO +U30 +Weather +,2015-03-01 14:55:00,
2015-03-01 10:05:00,27.7,26.5,29.21,SSE,166,5.1,6.7,95,0.00,,,-99.99,HOBO +U30 +Weather +,2015-03-01 15:05:00,
2015-03-01 10:15:00,28.0,26.8,29.21,South,174,2.9,4.5,95,0.00,,,-99.99,HOBO +U30 +Weather +,2015-03-01 15:15:00,
2015-03-01 10:25:00,28.3,27.2,29.21,South,170,1.1,2.2,95,0.00,,,-99.99,HOBO +U30 +Weather +,2015-03-01 15:25:00,
2015-03-01 10:35:00,28.6,27.5,29.21,SSE,167,1.1,3.4,95,0.00,,,-99.99,HOBO +U30 +Weather +,2015-03-01 15:35:00,
2015-03-01 10:45:00,28.5,27.4,29.21,SSE,166,0.7,2.2,95,0.00,,,-99.99,HOBO +U30 +Weather +,2015-03-01 15:45:00,
2015-03-01 10:55:00,28.6,27.5,29.21,SSE,166,0.7,2.2,95,0.00,,,-99.99,HOBO +U30 +Weather +,2015-03-01 15:55:00,
2015-03-01 11:05:00,28.5,27.4,29.20,South,170,2.2,4.5,95,0.00,,,-99.99,HOBO +U30 +Weather +,2015-03-01 16:05:00,
2015-03-01 11:15:00,28.5,27.4,29.20,South,170,1.1,3.4,95,0.00,,,-99.99,HOBO +U30 +Weather +,2015-03-01 16:15:00,
2015-03-01 11:25:00,28.7,27.6,29.20,SSE,168,0.7,2.2,95,0.00,,,-99.99,HOBO +U30 +Weather +,2015-03-01 16:25:00,
2015-03-01 11:35:00,29.2,28.0,29.19,SSE,167,0.0,1.8,95,0.00,,,-99.99,HOBO +U30 +Weather +,2015-03-01 16:35:00,
2015-03-01 11:45:00,29.4,28.2,29.19,SSE,167,0.0,0.0,95,0.00,,,-99.99,HOBO +U30 +Weather +,2015-03-01 16:45:00,
2015-03-01 11:55:00,29.4,28.1,29.19,SSE,167,0.0,0.0,95,0.00,,,-99.99,HOBO +U30 +Weather +,2015-03-01 16:55:00,
2015-03-01 12:04:00,29.4,28.1,29.19,SSE,167,0.0,0.0,94,0.00,,,-99.99,HOBO +U30 +Weather +,2015-03-01 17:04:00,
2015-03-01 12:05:00,29.7,28.3,29.19,SSE,167,0.0,0.0,94,0.00,,,-99.99,HOBO +U30 +Weather +,2015-03-01 17:05:00,
2015-03-01 12:15:00,29.8,28.3,29.19,South,188,0.0,1.8,94,0.00,,,-99.99,HOBO +U30 +Weather +,2015-03-01 17:15:00,
2015-03-01 12:25:00,29.9,28.5,29.19,West,260,2.2,4.5,94,0.00,,,-99.99,HOBO +U30 +Weather +,2015-03-01 17:25:00,
2015-03-01 12:34:00,30.0,28.5,29.19,West,263,2.2,4.0,94,0.00,,,-99.99,HOBO +U30 +Weather +,2015-03-01 17:34:00,
2015-03-01 12:44:00,30.1,28.6,29.18,West,263,2.2,4.0,94,0.00,,,-99.99,HOBO +U30 +Weather +,2015-03-01 17:44:00,
2015-03-01 12:45:00,30.3,28.7,29.17,WSW,241,2.2,5.6,94,0.00,,,-99.99,HOBO +U30 +Weather +,2015-03-01 17:45:00,
2015-03-01 12:55:00,30.4,28.9,29.17,SW,230,2.9,5.1,94,0.00,,,-99.99,HOBO +U30 +Weather +,2015-03-01 17:55:00,
2015-03-01 13:04:00,30.5,29.0,29.17,SW,229,2.9,6.3,94,0.00,,,-99.99,HOBO +U30 +Weather +,2015-03-01 18:04:00,
2015-03-01 13:14:00,30.5,29.0,29.17,SW,232,5.1,7.8,94,0.00,,,-99.99,HOBO +U30 +Weather +,2015-03-01 18:14:00,
2015-03-01 13:24:00,30.6,29.2,29.16,WSW,244,5.1,7.4,94,0.00,,,-99.99,HOBO +U30 +Weather +,2015-03-01 18:24:00,
2015-03-01 13:34:00,30.7,29.4,29.16,WSW,246,5.6,7.8,94,0.00,,,-99.99,HOBO +U30 +Weather +,2015-03-01 18:34:00,
2015-03-01 13:44:00,30.6,29.4,29.16,WSW,250,4.5,7.4,95,0.00,,,-99.99,HOBO +U30 +Weather +,2015-03-01 18:44:00,
2015-03-01 13:54:00,30.6,29.4,29.15,WSW,244,4.0,5.6,95,0.00,,,-99.99,HOBO +U30 +Weather +,2015-03-01 18:54:00,
2015-03-01 14:04:00,30.7,29.6,29.14,SW,223,3.4,5.6,95,0.00,,,-99.99,HOBO +U30 +Weather +,2015-03-01 19:04:00,
2015-03-01 14:14:00,30.8,29.8,29.13,WSW,240,2.2,6.3,96,0.00,,,-99.99,HOBO +U30 +Weather +,2015-03-01 19:14:00,
2015-03-01 14:24:00,30.9,30.0,29.13,SW,234,2.9,6.3,96,0.00,,,-99.99,HOBO +U30 +Weather +,2015-03-01 19:24:00,
2015-03-01 14:34:00,30.9,30.0,29.13,WSW,251,4.0,6.3,96,0.00,,,-99.99,HOBO +U30 +Weather +,2015-03-01 19:34:00,
2015-03-01 14:44:00,30.9,30.0,29.13,West,263,3.4,5.1,96,0.00,,,-99.99,HOBO +U30 +Weather +,2015-03-01 19:44:00,
2015-03-01 14:54:00,30.8,30.0,29.13,West,277,4.5,10.1,96,0.00,,,-99.99,HOBO +U30 +Weather +,2015-03-01 19:54:00,
2015-03-01 15:04:00,30.7,29.9,29.14,West,270,5.6,8.9,96,0.00,,,-99.99,HOBO +U30 +Weather +,2015-03-01 20:04:00,
2015-03-01 15:14:00,30.5,29.8,29.13,West,275,4.0,6.7,96,0.00,,,-99.99,HOBO +U30 +Weather +,2015-03-01 20:14:00,
2015-03-01 15:24:00,30.6,29.8,29.13,West,260,2.2,4.5,96,0.14,,,-99.99,HOBO +U30 +Weather +,2015-03-01 20:24:00,
2015-03-01 15:34:00,30.6,29.9,29.14,West,260,4.0,6.3,97,0.00,,,-99.99,HOBO +U30 +Weather +,2015-03-01 20:34:00,
2015-03-01 15:43:00,30.7,29.9,29.14,West,263,3.4,6.3,97,0.00,,,-99.99,HOBO +U30 +Weather +,2015-03-01 20:43:00,
2015-03-01 15:53:00,30.7,30.0,29.13,WSW,247,2.2,4.5,97,0.00,,,-99.99,HOBO +U30 +Weather +,2015-03-01 20:53:00,
2015-03-01 16:03:00,30.8,30.1,29.12,SW,236,1.8,4.0,97,0.00,,,-99.99,HOBO +U30 +Weather +,2015-03-01 21:03:00,
2015-03-01 16:13:00,31.0,30.3,29.12,SSW,209,1.8,3.4,97,0.14,,,-99.99,HOBO +U30 +Weather +,2015-03-01 21:13:00,
2015-03-01 16:23:00,31.0,30.3,29.13,SW,216,3.4,4.5,97,0.00,,,-99.99,HOBO +U30 +Weather +,2015-03-01 21:23:00,
2015-03-01 16:33:00,30.9,30.3,29.12,SW,225,2.9,5.6,97,0.00,,,-99.99,HOBO +U30 +Weather +,2015-03-01 21:33:00,
2015-03-01 16:43:00,31.0,30.3,29.13,WSW,246,3.4,5.6,97,0.00,,,-99.99,HOBO +U30 +Weather +,2015-03-01 21:43:00,
2015-03-01 16:53:00,31.1,30.5,29.13,WSW,240,4.0,5.6,97,0.00,,,-99.99,HOBO +U30 +Weather +,2015-03-01 21:53:00,
2015-03-01 17:03:00,31.0,30.5,29.13,WSW,241,4.0,6.3,97,0.00,,,-99.99,HOBO +U30 +Weather +,2015-03-01 22:03:00,
2015-03-01 17:13:00,31.1,30.6,29.13,WSW,247,3.4,6.3,97,0.14,,,-99.99,HOBO +U30 +Weather +,2015-03-01 22:13:00,
2015-03-01 17:23:00,31.2,30.7,29.13,WSW,248,4.0,7.4,97,0.00,,,-99.99,HOBO +U30 +Weather +,2015-03-01 22:23:00,
2015-03-01 17:33:00,31.2,30.7,29.13,West,272,5.1,7.8,97,0.00,,,-99.99,HOBO +U30 +Weather +,2015-03-01 22:33:00,
2015-03-01 17:43:00,31.3,30.8,29.13,West,278,4.5,7.4,97,0.00,,,-99.99,HOBO +U30 +Weather +,2015-03-01 22:43:00,
2015-03-01 17:50:00,31.2,30.7,29.13,West,271,2.9,4.5,98,0.00,,,-99.99,HOBO +U30 +Weather +,2015-03-01 22:50:00,
2015-03-01 17:52:00,31.2,30.6,29.14,West,275,4.0,6.7,97,0.00,,,-99.99,HOBO +U30 +Weather +,2015-03-01 22:52:00,
2015-03-01 18:00:00,31.2,30.7,29.13,West,270,4.0,5.6,98,0.00,,,-99.99,HOBO +U30 +Weather +,2015-03-01 23:00:00,
2015-03-01 18:03:00,31.2,30.7,29.14,West,270,4.0,6.3,98,0.00,,,-99.99,HOBO +U30 +Weather +,2015-03-01 23:03:00,
2015-03-01 18:10:00,31.1,30.6,29.13,West,268,2.9,5.1,98,0.00,,,-99.99,HOBO +U30 +Weather +,2015-03-01 23:10:00,
2015-03-01 18:12:00,31.1,30.6,29.13,West,268,4.0,6.7,98,0.00,,,-99.99,HOBO +U30 +Weather +,2015-03-01 23:12:00,
2015-03-01 18:20:00,31.1,30.6,29.11,West,268,1.1,4.5,98,0.00,,,-99.99,HOBO +U30 +Weather +,2015-03-01 23:20:00,
2015-03-01 18:22:00,31.1,30.6,29.12,West,268,2.2,5.6,98,0.00,,,-99.99,HOBO +U30 +Weather +,2015-03-01 23:22:00,
2015-03-01 18:30:00,31.1,30.6,29.13,West,268,4.0,7.8,98,0.00,,,-99.99,HOBO +U30 +Weather +,2015-03-01 23:30:00,
2015-03-01 18:32:00,31.1,30.6,29.12,West,268,1.1,3.4,98,0.00,,,-99.99,HOBO +U30 +Weather +,2015-03-01 23:32:00,
2015-03-01 18:40:00,31.1,30.7,29.13,West,268,3.4,6.7,98,0.00,,,-99.99,HOBO +U30 +Weather +,2015-03-01 23:40:00,
2015-03-01 18:42:00,31.1,30.6,29.14,West,268,5.1,8.5,98,0.00,,,-99.99,HOBO +U30 +Weather +,2015-03-01 23:42:00,
2015-03-01 18:50:00,31.1,30.7,29.13,West,268,3.4,6.3,98,0.00,,,-99.99,HOBO +U30 +Weather +,2015-03-01 23:50:00,
2015-03-01 18:52:00,31.1,30.6,29.13,West,268,4.0,6.3,98,0.00,,,-99.99,HOBO +U30 +Weather +,2015-03-01 23:52:00,
2015-03-01 19:00:00,31.0,30.6,29.12,West,268,2.9,6.3,98,0.00,,,-99.99,HOBO +U30 +Weather +,2015-03-02 00:00:00,
2015-03-01 19:02:00,31.1,30.6,29.12,West,268,2.9,4.5,98,0.00,,,-99.99,HOBO +U30 +Weather +,2015-03-02 00:02:00,
2015-03-01 19:10:00,31.0,30.6,29.13,West,268,3.4,5.6,98,0.00,,,-99.99,HOBO +U30 +Weather +,2015-03-02 00:10:00,
2015-03-01 19:12:00,31.0,30.6,29.13,West,268,4.0,6.3,98,0.00,,,-99.99,HOBO +U30 +Weather +,2015-03-02 00:12:00,
2015-03-01 19:20:00,31.0,30.6,29.13,West,268,4.0,7.4,98,0.00,,,-99.99,HOBO +U30 +Weather +,2015-03-02 00:20:00,
2015-03-01 19:21:00,31.0,30.6,29.13,West,268,4.0,6.3,98,0.00,,,-99.99,HOBO +U30 +Weather +,2015-03-02 00:21:00,
2015-03-01 19:30:00,31.0,30.6,29.14,West,268,5.1,7.4,98,0.00,,,-99.99,HOBO +U30 +Weather +,2015-03-02 00:30:00,
2015-03-01 19:31:00,31.0,30.6,29.13,West,268,4.5,6.7,98,0.00,,,-99.99,HOBO +U30 +Weather +,2015-03-02 00:31:00,
2015-03-01 19:40:00,30.9,30.5,29.14,West,268,5.6,7.8,98,0.00,,,-99.99,HOBO +U30 +Weather +,2015-03-02 00:40:00,
2015-03-01 19:41:00,30.9,30.5,29.14,West,268,5.6,8.5,98,0.00,,,-99.99,HOBO +U30 +Weather +,2015-03-02 00:41:00,
2015-03-01 19:50:00,30.9,30.5,29.14,West,268,4.5,7.4,98,0.00,,,-99.99,HOBO +U30 +Weather +,2015-03-02 00:50:00,
2015-03-01 19:51:00,30.9,30.5,29.14,West,268,4.5,6.3,98,0.00,,,-99.99,HOBO +U30 +Weather +,2015-03-02 00:51:00,
2015-03-01 20:00:00,30.9,30.5,29.15,West,268,4.0,5.6,98,0.00,,,-99.99,HOBO +U30 +Weather +,2015-03-02 01:00:00,
2015-03-01 20:01:00,30.9,30.5,29.15,West,268,5.1,8.5,98,0.00,,,-99.99,HOBO +U30 +Weather +,2015-03-02 01:01:00,
2015-03-01 20:10:00,30.8,30.4,29.15,West,268,5.6,7.8,98,0.00,,,-99.99,HOBO +U30 +Weather +,2015-03-02 01:10:00,
2015-03-01 20:11:00,30.9,30.5,29.15,West,268,5.6,7.8,98,0.00,,,-99.99,HOBO +U30 +Weather +,2015-03-02 01:11:00,
2015-03-01 20:20:00,30.8,30.4,29.16,West,268,5.6,8.5,98,0.00,,,-99.99,HOBO +U30 +Weather +,2015-03-02 01:20:00,
2015-03-01 20:21:00,30.8,30.4,29.15,West,268,5.1,7.4,98,0.00,,,-99.99,HOBO +U30 +Weather +,2015-03-02 01:21:00,
2015-03-01 20:30:00,30.8,30.3,29.16,West,268,6.7,8.9,98,0.00,,,-99.99,HOBO +U30 +Weather +,2015-03-02 01:30:00,
2015-03-01 20:31:00,30.8,30.4,29.16,West,268,6.3,9.6,98,0.00,,,-99.99,HOBO +U30 +Weather +,2015-03-02 01:31:00,
2015-03-01 20:40:00,30.7,30.3,29.16,West,268,7.8,10.7,98,0.00,,,-99.99,HOBO +U30 +Weather +,2015-03-02 01:40:00,
2015-03-01 20:41:00,30.7,30.3,29.16,West,268,7.8,11.2,98,0.00,,,-99.99,HOBO +U30 +Weather +,2015-03-02 01:41:00,
2015-03-01 20:50:00,30.5,30.1,29.15,West,268,6.7,8.9,98,0.00,,,-99.99,HOBO +U30 +Weather +,2015-03-02 01:50:00,
2015-03-01 20:51:00,30.6,30.2,29.16,West,268,6.7,9.6,98,0.00,,,-99.99,HOBO +U30 +Weather +,2015-03-02 01:51:00,
2015-03-01 21:00:00,30.4,30.0,29.14,West,268,6.3,8.9,98,0.00,,,-99.99,HOBO +U30 +Weather +,2015-03-02 02:00:00,
2015-03-01 21:01:00,30.5,30.1,29.14,West,268,6.3,9.6,98,0.00,,,-99.99,HOBO +U30 +Weather +,2015-03-02 02:01:00,
2015-03-01 21:10:00,30.3,29.9,29.14,West,268,5.6,9.6,98,0.00,,,-99.99,HOBO +U30 +Weather +,2015-03-02 02:10:00,
2015-03-01 21:11:00,30.4,30.0,29.14,West,268,6.7,9.6,98,0.00,,,-99.99,HOBO +U30 +Weather +,2015-03-02 02:11:00,
2015-03-01 21:20:00,30.3,29.9,29.14,West,268,5.1,7.8,98,0.00,,,-99.99,HOBO +U30 +Weather +,2015-03-02 02:20:00,
2015-03-01 21:30:00,30.2,29.7,29.14,West,268,6.3,10.7,98,0.00,,,-99.99,HOBO +U30 +Weather +,2015-03-02 02:30:00,
2015-03-01 21:40:00,30.1,29.7,29.15,West,268,6.3,10.1,98,0.00,,,-99.99,HOBO +U30 +Weather +,2015-03-02 02:40:00,
2015-03-01 21:50:00,29.9,29.5,29.15,West,268,6.7,9.6,98,0.00,,,-99.99,HOBO +U30 +Weather +,2015-03-02 02:50:00,
2015-03-01 22:00:00,29.9,29.4,29.16,West,272,8.5,13.0,98,0.00,,,-99.99,HOBO +U30 +Weather +,2015-03-02 03:00:00,
2015-03-01 22:10:00,29.8,29.4,29.16,WNW,291,8.9,13.0,98,0.00,,,-99.99,HOBO +U30 +Weather +,2015-03-02 03:10:00,
2015-03-01 22:20:00,29.7,29.3,29.17,WNW,295,10.7,14.5,98,0.00,,,-99.99,HOBO +U30 +Weather +,2015-03-02 03:20:00,
2015-03-01 22:30:00,29.6,29.1,29.17,WNW,296,10.1,14.5,98,0.00,,,-99.99,HOBO +U30 +Weather +,2015-03-02 03:30:00,
2015-03-01 22:39:00,29.6,29.1,29.17,WNW,295,10.1,15.2,98,0.00,,,-99.99,HOBO +U30 +Weather +,2015-03-02 03:39:00,
2015-03-01 22:49:00,29.5,28.9,29.17,WNW,291,7.8,11.9,97,0.00,,,-99.99,HOBO +U30 +Weather +,2015-03-02 03:49:00,
2015-03-01 22:59:00,29.5,28.8,29.17,WNW,293,8.9,14.5,97,0.00,,,-99.99,HOBO +U30 +Weather +,2015-03-02 03:59:00,
2015-03-01 23:09:00,29.4,28.6,29.18,WNW,303,11.2,17.0,96,0.00,,,-99.99,HOBO +U30 +Weather +,2015-03-02 04:09:00,